sensor_id;sensor_type;location;lat;lon;timestamp;P1;durP1;ratioP1;P2;durP2;ratioP2
25980;SDS011;13772;52.996;9.124;2023-04-25T09:07:36;8.07;;;1.30;;
25980;SDS011;13772;52.996;9.124;2023-04-25T09:10:02;7.25;;;1.35;;
25980;SDS011;13772;52.996;9.124;2023-04-25T09:12:30;10.27;;;1.85;;
25980;SDS011;13772;52.996;9.124;2023-04-25T09:15:07;6.85;;;1.92;;
25980;SDS011;13772;52.996;9.124;2023-04-25T09:18:05;4.80;;;1.00;;
25980;SDS011;13772;52.996;9.124;2023-04-25T09:20:42;8.25;;;1.65;;
25980;SDS011;13772;52.996;9.124;2023-04-25T09:23:08;3.45;;;1.05;;
25980;SDS011;13772;52.996;9.124;2023-04-25T09:25:36;5.55;;;1.10;;
25980;SDS011;13772;52.996;9.124;2023-04-25T09:28:05;3.35;;;1.17;;
25980;SDS011;13772;52.996;9.124;2023-04-25T09:30:32;7.43;;;1.30;;
25980;SDS011;13772;52.996;9.124;2023-04-25T09:33:19;4.13;;;1.20;;
25980;SDS011;13772;52.996;9.124;2023-04-25T09:35:48;5.63;;;1.00;;
25980;SDS011;13772;52.996;9.124;2023-04-25T09:38:27;6.22;;;1.17;;
25980;SDS011;13772;52.996;9.124;2023-04-25T09:41:04;6.22;;;1.27;;
25980;SDS011;13772;52.996;9.124;2023-04-25T09:43:37;8.43;;;1.10;;
25980;SDS011;13772;52.996;9.124;2023-04-25T09:46:07;3.38;;;0.70;;
25980;SDS011;13772;52.996;9.124;2023-04-25T09:48:37;4.25;;;1.15;;
25980;SDS011;13772;52.996;9.124;2023-04-25T09:51:07;6.07;;;1.40;;
25980;SDS011;13772;52.996;9.124;2023-04-25T09:53:40;6.38;;;1.33;;
25980;SDS011;13772;52.996;9.124;2023-04-25T09:56:12;5.75;;;1.38;;
25980;SDS011;13772;52.996;9.124;2023-04-25T09:58:39;6.70;;;2.00;;
25980;SDS011;13772;52.996;9.124;2023-04-25T10:01:06;4.93;;;1.10;;
25980;SDS011;13772;52.996;9.124;2023-04-25T10:03:40;7.57;;;1.75;;
25980;SDS011;13772;52.996;9.124;2023-04-25T10:06:24;6.10;;;1.40;;
25980;SDS011;13772;52.996;9.124;2023-04-25T10:08:50;7.55;;;1.45;;
25980;SDS011;13772;52.996;9.124;2023-04-25T10:11:16;6.28;;;1.33;;
25980;SDS011;13772;52.996;9.124;2023-04-25T10:13:41;6.00;;;1.55;;
25980;SDS011;13772;52.996;9.124;2023-04-25T10:16:07;7.35;;;1.50;;
25980;SDS011;13772;52.996;9.124;2023-04-25T10:18:33;5.13;;;1.15;;
25980;SDS011;13772;52.996;9.124;2023-04-25T10:20:59;7.57;;;1.90;;
25980;SDS011;13772;52.996;9.124;2023-04-25T10:23:24;5.10;;;1.10;;
25980;SDS011;13772;52.996;9.124;2023-04-25T10:25:51;4.32;;;1.27;;
25980;SDS011;13772;52.996;9.124;2023-04-25T10:28:16;4.53;;;1.20;;
25980;SDS011;13772;52.996;9.124;2023-04-25T10:33:33;5.55;;;1.10;;
25980;SDS011;13772;52.996;9.124;2023-04-25T10:35:58;5.68;;;1.42;;
25980;SDS011;13772;52.996;9.124;2023-04-25T10:38:24;5.90;;;1.30;;
25980;SDS011;13772;52.996;9.124;2023-04-25T10:41:03;8.98;;;1.65;;
25980;SDS011;13772;52.996;9.124;2023-04-25T10:46:01;5.50;;;1.40;;
25980;SDS011;13772;52.996;9.124;2023-04-25T10:48:26;5.55;;;1.17;;
25980;SDS011;13772;52.996;9.124;2023-04-25T10:51:08;5.05;;;1.20;;
25980;SDS011;13772;52.996;9.124;2023-04-25T10:53:33;5.63;;;1.42;;
25980;SDS011;13772;52.996;9.124;2023-04-25T10:55:59;5.22;;;1.10;;
25980;SDS011;13772;52.996;9.124;2023-04-25T10:58:24;5.47;;;1.52;;
25980;SDS011;13772;52.996;9.124;2023-04-25T11:00:49;4.38;;;1.02;;
25980;SDS011;13772;52.996;9.124;2023-04-25T11:03:15;5.05;;;1.02;;
25980;SDS011;13772;52.996;9.124;2023-04-25T11:05:41;4.50;;;0.80;;
25980;SDS011;13772;52.996;9.124;2023-04-25T11:08:11;5.47;;;0.98;;
25980;SDS011;13772;52.996;9.124;2023-04-25T11:10:36;5.82;;;1.33;;
25980;SDS011;13772;52.996;9.124;2023-04-25T11:13:02;6.47;;;1.35;;
25980;SDS011;13772;52.996;9.124;2023-04-25T11:15:27;3.70;;;1.30;;
25980;SDS011;13772;52.996;9.124;2023-04-25T11:17:52;5.43;;;1.63;;
25980;SDS011;13772;52.996;9.124;2023-04-25T11:20:18;5.10;;;1.30;;
25980;SDS011;13772;52.996;9.124;2023-04-25T11:22:44;4.45;;;1.30;;
25980;SDS011;13772;52.996;9.124;2023-04-25T11:25:10;4.07;;;1.23;;
25980;SDS011;13772;52.996;9.124;2023-04-25T11:27:48;5.63;;;1.40;;
25980;SDS011;13772;52.996;9.124;2023-04-25T11:30:15;5.55;;;1.33;;
25980;SDS011;13772;52.996;9.124;2023-04-25T11:32:41;3.33;;;1.00;;
25980;SDS011;13772;52.996;9.124;2023-04-25T11:35:07;5.30;;;1.27;;
25980;SDS011;13772;52.996;9.124;2023-04-25T11:37:32;6.72;;;1.30;;
25980;SDS011;13772;52.996;9.124;2023-04-25T11:39:58;4.47;;;1.33;;
25980;SDS011;13772;52.996;9.124;2023-04-25T11:42:23;6.00;;;1.42;;
25980;SDS011;13772;52.996;9.124;2023-04-25T11:44:48;8.50;;;1.77;;
25980;SDS011;13772;52.996;9.124;2023-04-25T11:47:13;6.35;;;1.70;;
25980;SDS011;13772;52.996;9.124;2023-04-25T11:49:38;5.75;;;1.17;;
25980;SDS011;13772;52.996;9.124;2023-04-25T11:52:05;5.90;;;1.00;;
25980;SDS011;13772;52.996;9.124;2023-04-25T11:54:31;7.07;;;1.55;;
25980;SDS011;13772;52.996;9.124;2023-04-25T11:56:56;9.57;;;1.55;;
25980;SDS011;13772;52.996;9.124;2023-04-25T11:59:24;5.80;;;1.25;;
25980;SDS011;13772;52.996;9.124;2023-04-25T12:01:50;8.45;;;1.80;;
25980;SDS011;13772;52.996;9.124;2023-04-25T12:04:21;3.92;;;1.20;;
25980;SDS011;13772;52.996;9.124;2023-04-25T12:06:48;3.42;;;1.02;;
25980;SDS011;13772;52.996;9.124;2023-04-25T12:09:14;3.63;;;0.82;;
25980;SDS011;13772;52.996;9.124;2023-04-25T12:14:09;2.38;;;0.52;;
25980;SDS011;13772;52.996;9.124;2023-04-25T12:16:44;2.65;;;0.95;;
25980;SDS011;13772;52.996;9.124;2023-04-25T12:19:09;4.57;;;0.82;;
25980;SDS011;13772;52.996;9.124;2023-04-25T12:21:35;5.15;;;0.95;;
25980;SDS011;13772;52.996;9.124;2023-04-25T12:24:13;7.05;;;1.30;;
25980;SDS011;13772;52.996;9.124;2023-04-25T12:29:24;5.65;;;1.10;;
25980;SDS011;13772;52.996;9.124;2023-04-25T12:31:51;6.15;;;1.10;;
25980;SDS011;13772;52.996;9.124;2023-04-25T12:34:17;6.63;;;1.30;;
25980;SDS011;13772;52.996;9.124;2023-04-25T12:36:42;3.33;;;1.20;;
25980;SDS011;13772;52.996;9.124;2023-04-25T12:39:07;6.80;;;1.40;;
25980;SDS011;13772;52.996;9.124;2023-04-25T12:41:33;3.53;;;0.93;;
25980;SDS011;13772;52.996;9.124;2023-04-25T12:43:58;5.88;;;1.00;;
25980;SDS011;13772;52.996;9.124;2023-04-25T12:46:23;2.95;;;0.77;;
25980;SDS011;13772;52.996;9.124;2023-04-25T12:48:48;4.90;;;0.93;;
25980;SDS011;13772;52.996;9.124;2023-04-25T12:51:14;8.60;;;1.30;;
25980;SDS011;13772;52.996;9.124;2023-04-25T12:53:39;4.57;;;1.20;;
25980;SDS011;13772;52.996;9.124;2023-04-25T12:56:06;8.05;;;1.42;;
25980;SDS011;13772;52.996;9.124;2023-04-25T12:58:31;5.90;;;1.00;;
25980;SDS011;13772;52.996;9.124;2023-04-25T13:00:58;6.40;;;1.10;;
25980;SDS011;13772;52.996;9.124;2023-04-25T13:03:23;10.07;;;1.20;;
25980;SDS011;13772;52.996;9.124;2023-04-25T13:05:48;8.27;;;1.35;;
25980;SDS011;13772;52.996;9.124;2023-04-25T13:08:15;8.95;;;1.83;;
25980;SDS011;13772;52.996;9.124;2023-04-25T13:10:40;6.65;;;1.50;;
25980;SDS011;13772;52.996;9.124;2023-04-25T13:13:05;6.18;;;1.58;;
25980;SDS011;13772;52.996;9.124;2023-04-25T13:15:31;6.30;;;1.55;;
25980;SDS011;13772;52.996;9.124;2023-04-25T13:17:56;5.00;;;1.13;;
25980;SDS011;13772;52.996;9.124;2023-04-25T13:20:21;4.07;;;1.13;;
25980;SDS011;13772;52.996;9.124;2023-04-25T13:22:47;5.25;;;1.35;;
25980;SDS011;13772;52.996;9.124;2023-04-25T13:25:12;6.45;;;1.48;;
25980;SDS011;13772;52.996;9.124;2023-04-25T13:27:38;7.22;;;1.27;;
25980;SDS011;13772;52.996;9.124;2023-04-25T13:30:05;6.88;;;1.38;;
25980;SDS011;13772;52.996;9.124;2023-04-25T13:32:34;5.57;;;1.08;;
25980;SDS011;13772;52.996;9.124;2023-04-25T13:35:01;8.52;;;1.40;;
25980;SDS011;13772;52.996;9.124;2023-04-25T13:37:27;5.32;;;1.33;;
25980;SDS011;13772;52.996;9.124;2023-04-25T13:39:52;4.90;;;1.05;;
25980;SDS011;13772;52.996;9.124;2023-04-25T13:42:20;3.60;;;0.98;;
25980;SDS011;13772;52.996;9.124;2023-04-25T13:44:46;4.63;;;1.35;;
25980;SDS011;13772;52.996;9.124;2023-04-25T13:47:11;3.35;;;0.90;;
25980;SDS011;13772;52.996;9.124;2023-04-25T13:49:36;4.05;;;1.10;;
25980;SDS011;13772;52.996;9.124;2023-04-25T13:52:01;3.55;;;1.08;;
25980;SDS011;13772;52.996;9.124;2023-04-25T13:54:27;4.82;;;1.15;;
25980;SDS011;13772;52.996;9.124;2023-04-25T13:56:52;4.63;;;1.33;;
25980;SDS011;13772;52.996;9.124;2023-04-25T13:59:20;6.03;;;1.40;;
25980;SDS011;13772;52.996;9.124;2023-04-25T14:01:45;3.35;;;0.88;;
25980;SDS011;13772;52.996;9.124;2023-04-25T14:04:11;2.38;;;0.85;;
25980;SDS011;13772;52.996;9.124;2023-04-25T14:06:36;5.18;;;1.63;;
25980;SDS011;13772;52.996;9.124;2023-04-25T14:09:01;4.28;;;1.30;;
25980;SDS011;13772;52.996;9.124;2023-04-25T14:11:29;4.55;;;0.88;;
25980;SDS011;13772;52.996;9.124;2023-04-25T14:13:54;7.10;;;1.45;;
25980;SDS011;13772;52.996;9.124;2023-04-25T14:16:19;5.93;;;1.17;;
25980;SDS011;13772;52.996;9.124;2023-04-25T14:18:45;4.95;;;1.58;;
25980;SDS011;13772;52.996;9.124;2023-04-25T14:21:10;8.25;;;1.30;;
25980;SDS011;13772;52.996;9.124;2023-04-25T14:23:35;5.00;;;1.00;;
25980;SDS011;13772;52.996;9.124;2023-04-25T14:26:01;5.72;;;1.10;;
25980;SDS011;13772;52.996;9.124;2023-04-25T14:28:26;1.95;;;0.80;;
25980;SDS011;13772;52.996;9.124;2023-04-25T14:30:52;5.82;;;1.20;;
25980;SDS011;13772;52.996;9.124;2023-04-25T14:33:17;5.80;;;0.95;;
25980;SDS011;13772;52.996;9.124;2023-04-25T14:35:42;5.53;;;1.30;;
25980;SDS011;13772;52.996;9.124;2023-04-25T14:38:07;9.48;;;1.45;;
25980;SDS011;13772;52.996;9.124;2023-04-25T14:40:33;7.93;;;1.30;;
25980;SDS011;13772;52.996;9.124;2023-04-25T14:42:58;3.90;;;0.95;;
25980;SDS011;13772;52.996;9.124;2023-04-25T14:45:23;4.65;;;1.08;;
25980;SDS011;13772;52.996;9.124;2023-04-25T14:47:48;4.00;;;1.00;;
25980;SDS011;13772;52.996;9.124;2023-04-25T14:50:14;6.38;;;1.25;;
25980;SDS011;13772;52.996;9.124;2023-04-25T14:52:39;3.90;;;1.15;;
25980;SDS011;13772;52.996;9.124;2023-04-25T14:55:04;5.78;;;1.17;;
25980;SDS011;13772;52.996;9.124;2023-04-25T14:57:33;5.97;;;1.40;;
25980;SDS011;13772;52.996;9.124;2023-04-25T14:59:58;8.50;;;1.42;;
25980;SDS011;13772;52.996;9.124;2023-04-25T15:02:24;4.43;;;1.45;;
25980;SDS011;13772;52.996;9.124;2023-04-25T15:04:49;3.70;;;1.00;;
25980;SDS011;13772;52.996;9.124;2023-04-25T15:07:15;3.63;;;1.00;;
25980;SDS011;13772;52.996;9.124;2023-04-25T15:09:40;3.25;;;0.80;;
25980;SDS011;13772;52.996;9.124;2023-04-25T15:12:05;2.50;;;0.80;;
25980;SDS011;13772;52.996;9.124;2023-04-25T15:14:30;4.18;;;0.95;;
25980;SDS011;13772;52.996;9.124;2023-04-25T15:16:56;6.55;;;1.15;;
25980;SDS011;13772;52.996;9.124;2023-04-25T15:19:21;2.60;;;0.77;;
25980;SDS011;13772;52.996;9.124;2023-04-25T15:21:46;5.10;;;1.45;;
25980;SDS011;13772;52.996;9.124;2023-04-25T15:24:12;4.78;;;1.15;;
25980;SDS011;13772;52.996;9.124;2023-04-25T15:26:39;5.43;;;0.98;;
25980;SDS011;13772;52.996;9.124;2023-04-25T15:29:04;4.97;;;1.08;;
25980;SDS011;13772;52.996;9.124;2023-04-25T15:31:30;5.03;;;1.00;;
25980;SDS011;13772;52.996;9.124;2023-04-25T15:33:55;6.10;;;1.00;;
25980;SDS011;13772;52.996;9.124;2023-04-25T15:36:21;4.03;;;1.10;;
25980;SDS011;13772;52.996;9.124;2023-04-25T15:38:46;5.57;;;1.38;;
25980;SDS011;13772;52.996;9.124;2023-04-25T15:41:11;5.72;;;1.20;;
25980;SDS011;13772;52.996;9.124;2023-04-25T15:43:37;4.45;;;1.10;;
25980;SDS011;13772;52.996;9.124;2023-04-25T15:46:03;5.88;;;1.35;;
25980;SDS011;13772;52.996;9.124;2023-04-25T15:48:28;6.63;;;1.30;;
25980;SDS011;13772;52.996;9.124;2023-04-25T15:50:53;6.63;;;1.50;;
25980;SDS011;13772;52.996;9.124;2023-04-25T15:53:19;5.53;;;1.30;;
25980;SDS011;13772;52.996;9.124;2023-04-25T15:55:44;5.97;;;1.33;;
25980;SDS011;13772;52.996;9.124;2023-04-25T15:58:09;5.45;;;1.27;;
25980;SDS011;13772;52.996;9.124;2023-04-25T16:00:35;6.07;;;1.20;;
25980;SDS011;13772;52.996;9.124;2023-04-25T16:03:02;5.18;;;1.17;;
25980;SDS011;13772;52.996;9.124;2023-04-25T16:05:28;7.50;;;1.38;;
25980;SDS011;13772;52.996;9.124;2023-04-25T16:07:53;6.35;;;1.17;;
25980;SDS011;13772;52.996;9.124;2023-04-25T16:10:18;7.30;;;1.45;;
25980;SDS011;13772;52.996;9.124;2023-04-25T16:12:45;6.03;;;1.13;;
25980;SDS011;13772;52.996;9.124;2023-04-25T16:15:12;6.82;;;1.20;;
25980;SDS011;13772;52.996;9.124;2023-04-25T16:17:37;5.95;;;1.42;;
25980;SDS011;13772;52.996;9.124;2023-04-25T16:20:03;6.40;;;1.48;;
25980;SDS011;13772;52.996;9.124;2023-04-25T16:22:37;4.95;;;1.30;;
25980;SDS011;13772;52.996;9.124;2023-04-25T16:25:03;7.38;;;1.48;;
25980;SDS011;13772;52.996;9.124;2023-04-25T16:27:29;9.43;;;1.63;;
25980;SDS011;13772;52.996;9.124;2023-04-25T16:29:54;6.47;;;1.63;;
25980;SDS011;13772;52.996;9.124;2023-04-25T16:32:20;9.63;;;2.00;;
25980;SDS011;13772;52.996;9.124;2023-04-25T16:34:45;7.72;;;1.65;;
25980;SDS011;13772;52.996;9.124;2023-04-25T16:37:10;8.73;;;1.27;;
25980;SDS011;13772;52.996;9.124;2023-04-25T16:39:36;10.35;;;1.55;;
25980;SDS011;13772;52.996;9.124;2023-04-25T16:42:01;4.65;;;1.25;;
25980;SDS011;13772;52.996;9.124;2023-04-25T16:44:26;5.65;;;1.00;;
25980;SDS011;13772;52.996;9.124;2023-04-25T16:46:51;4.78;;;1.10;;
25980;SDS011;13772;52.996;9.124;2023-04-25T16:49:16;7.28;;;1.40;;
25980;SDS011;13772;52.996;9.124;2023-04-25T16:51:42;11.57;;;1.63;;
25980;SDS011;13772;52.996;9.124;2023-04-25T16:54:07;6.47;;;1.52;;
25980;SDS011;13772;52.996;9.124;2023-04-25T16:56:32;7.35;;;1.13;;
25980;SDS011;13772;52.996;9.124;2023-04-25T16:58:57;5.68;;;1.17;;
25980;SDS011;13772;52.996;9.124;2023-04-25T17:01:23;7.35;;;1.60;;
25980;SDS011;13772;52.996;9.124;2023-04-25T17:03:48;5.88;;;1.75;;
25980;SDS011;13772;52.996;9.124;2023-04-25T17:06:13;7.78;;;1.30;;
25980;SDS011;13772;52.996;9.124;2023-04-25T17:08:39;8.32;;;1.75;;
25980;SDS011;13772;52.996;9.124;2023-04-25T17:11:04;8.60;;;1.30;;
25980;SDS011;13772;52.996;9.124;2023-04-25T17:13:30;6.22;;;1.10;;
25980;SDS011;13772;52.996;9.124;2023-04-25T17:15:55;4.50;;;1.60;;
25980;SDS011;13772;52.996;9.124;2023-04-25T17:18:21;6.32;;;1.60;;
25980;SDS011;13772;52.996;9.124;2023-04-25T17:20:46;8.10;;;1.58;;
25980;SDS011;13772;52.996;9.124;2023-04-25T17:23:11;8.65;;;1.95;;
25980;SDS011;13772;52.996;9.124;2023-04-25T17:25:36;6.85;;;1.38;;
25980;SDS011;13772;52.996;9.124;2023-04-25T17:28:02;3.40;;;1.02;;
25980;SDS011;13772;52.996;9.124;2023-04-25T17:30:27;8.80;;;1.63;;
25980;SDS011;13772;52.996;9.124;2023-04-25T17:32:52;13.40;;;1.83;;
25980;SDS011;13772;52.996;9.124;2023-04-25T17:35:18;5.90;;;0.98;;
25980;SDS011;13772;52.996;9.124;2023-04-25T17:37:43;7.65;;;1.02;;
25980;SDS011;13772;52.996;9.124;2023-04-25T17:40:09;7.03;;;1.55;;
25980;SDS011;13772;52.996;9.124;2023-04-25T17:42:37;4.28;;;1.08;;
25980;SDS011;13772;52.996;9.124;2023-04-25T17:45:03;7.60;;;1.55;;
25980;SDS011;13772;52.996;9.124;2023-04-25T17:47:28;12.68;;;3.53;;
25980;SDS011;13772;52.996;9.124;2023-04-25T17:49:54;6.80;;;1.40;;
25980;SDS011;13772;52.996;9.124;2023-04-25T17:52:20;10.07;;;1.30;;
25980;SDS011;13772;52.996;9.124;2023-04-25T17:54:45;6.43;;;1.40;;
25980;SDS011;13772;52.996;9.124;2023-04-25T17:57:11;7.07;;;1.67;;
25980;SDS011;13772;52.996;9.124;2023-04-25T17:59:36;8.95;;;1.50;;
25980;SDS011;13772;52.996;9.124;2023-04-25T18:02:01;8.85;;;1.70;;
25980;SDS011;13772;52.996;9.124;2023-04-25T18:04:27;9.35;;;1.67;;
25980;SDS011;13772;52.996;9.124;2023-04-25T18:06:53;9.23;;;2.13;;
25980;SDS011;13772;52.996;9.124;2023-04-25T18:09:19;6.00;;;1.77;;
25980;SDS011;13772;52.996;9.124;2023-04-25T18:11:47;13.48;;;2.50;;
25980;SDS011;13772;52.996;9.124;2023-04-25T18:14:14;10.82;;;1.80;;
25980;SDS011;13772;52.996;9.124;2023-04-25T18:16:43;6.60;;;1.60;;
25980;SDS011;13772;52.996;9.124;2023-04-25T18:19:09;10.38;;;1.58;;
25980;SDS011;13772;52.996;9.124;2023-04-25T18:21:39;11.10;;;1.70;;
25980;SDS011;13772;52.996;9.124;2023-04-25T18:24:05;7.00;;;1.40;;
25980;SDS011;13772;52.996;9.124;2023-04-25T18:26:32;8.80;;;1.70;;
25980;SDS011;13772;52.996;9.124;2023-04-25T18:28:57;7.63;;;2.05;;
25980;SDS011;13772;52.996;9.124;2023-04-25T18:31:22;14.70;;;2.20;;
25980;SDS011;13772;52.996;9.124;2023-04-25T18:33:49;9.07;;;2.28;;
25980;SDS011;13772;52.996;9.124;2023-04-25T18:36:14;9.25;;;1.88;;
25980;SDS011;13772;52.996;9.124;2023-04-25T18:38:39;6.30;;;1.75;;
25980;SDS011;13772;52.996;9.124;2023-04-25T18:41:05;8.10;;;2.10;;
25980;SDS011;13772;52.996;9.124;2023-04-25T18:43:30;11.10;;;2.15;;
25980;SDS011;13772;52.996;9.124;2023-04-25T18:45:55;12.38;;;1.92;;
25980;SDS011;13772;52.996;9.124;2023-04-25T18:48:21;10.80;;;2.15;;
25980;SDS011;13772;52.996;9.124;2023-04-25T18:50:46;8.27;;;1.67;;
25980;SDS011;13772;52.996;9.124;2023-04-25T18:53:11;7.43;;;1.67;;
25980;SDS011;13772;52.996;9.124;2023-04-25T18:55:37;8.73;;;2.28;;
25980;SDS011;13772;52.996;9.124;2023-04-25T18:58:03;9.95;;;1.92;;
25980;SDS011;13772;52.996;9.124;2023-04-25T19:00:29;9.38;;;1.40;;
25980;SDS011;13772;52.996;9.124;2023-04-25T19:02:54;8.57;;;1.60;;
25980;SDS011;13772;52.996;9.124;2023-04-25T19:05:21;8.00;;;1.40;;
25980;SDS011;13772;52.996;9.124;2023-04-25T19:07:47;8.65;;;1.52;;
25980;SDS011;13772;52.996;9.124;2023-04-25T19:10:12;8.95;;;1.42;;
25980;SDS011;13772;52.996;9.124;2023-04-25T19:12:37;5.07;;;1.13;;
25980;SDS011;13772;52.996;9.124;2023-04-25T19:15:03;9.30;;;1.65;;
25980;SDS011;13772;52.996;9.124;2023-04-25T19:17:28;5.80;;;1.45;;
25980;SDS011;13772;52.996;9.124;2023-04-25T19:19:53;8.68;;;1.30;;
25980;SDS011;13772;52.996;9.124;2023-04-25T19:22:18;4.93;;;1.27;;
25980;SDS011;13772;52.996;9.124;2023-04-25T19:24:44;8.43;;;1.70;;
25980;SDS011;13772;52.996;9.124;2023-04-25T19:27:09;8.60;;;1.50;;
25980;SDS011;13772;52.996;9.124;2023-04-25T19:29:35;5.93;;;1.55;;
25980;SDS011;13772;52.996;9.124;2023-04-25T19:32:00;5.55;;;1.20;;
25980;SDS011;13772;52.996;9.124;2023-04-25T19:34:27;7.75;;;1.88;;
25980;SDS011;13772;52.996;9.124;2023-04-25T19:36:52;11.98;;;1.67;;
25980;SDS011;13772;52.996;9.124;2023-04-25T19:39:18;10.60;;;2.33;;
25980;SDS011;13772;52.996;9.124;2023-04-25T19:41:43;7.55;;;1.70;;
25980;SDS011;13772;52.996;9.124;2023-04-25T19:44:09;12.70;;;2.22;;
25980;SDS011;13772;52.996;9.124;2023-04-25T19:46:34;7.50;;;2.05;;
25980;SDS011;13772;52.996;9.124;2023-04-25T19:49:01;6.55;;;1.73;;
25980;SDS011;13772;52.996;9.124;2023-04-25T19:51:26;12.55;;;1.98;;
25980;SDS011;13772;52.996;9.124;2023-04-25T19:53:52;7.13;;;1.40;;
25980;SDS011;13772;52.996;9.124;2023-04-25T19:56:18;8.02;;;2.15;;
25980;SDS011;13772;52.996;9.124;2023-04-25T19:58:44;6.85;;;1.70;;
25980;SDS011;13772;52.996;9.124;2023-04-25T20:01:09;7.65;;;2.08;;
25980;SDS011;13772;52.996;9.124;2023-04-25T20:03:34;8.23;;;1.80;;
25980;SDS011;13772;52.996;9.124;2023-04-25T20:06:00;8.57;;;2.40;;
25980;SDS011;13772;52.996;9.124;2023-04-25T20:08:25;10.05;;;2.05;;
25980;SDS011;13772;52.996;9.124;2023-04-25T20:10:50;12.32;;;2.08;;
25980;SDS011;13772;52.996;9.124;2023-04-25T20:13:16;9.85;;;2.20;;
25980;SDS011;13772;52.996;9.124;2023-04-25T20:15:41;8.57;;;1.90;;
25980;SDS011;13772;52.996;9.124;2023-04-25T20:18:06;12.10;;;1.65;;
25980;SDS011;13772;52.996;9.124;2023-04-25T20:20:32;9.07;;;1.70;;
25980;SDS011;13772;52.996;9.124;2023-04-25T20:22:58;13.80;;;1.90;;
25980;SDS011;13772;52.996;9.124;2023-04-25T20:25:23;6.30;;;1.85;;
25980;SDS011;13772;52.996;9.124;2023-04-25T20:27:48;11.18;;;1.92;;
25980;SDS011;13772;52.996;9.124;2023-04-25T20:30:13;9.45;;;1.60;;
25980;SDS011;13772;52.996;9.124;2023-04-25T20:32:39;10.48;;;2.05;;
25980;SDS011;13772;52.996;9.124;2023-04-25T20:35:05;11.48;;;1.90;;
25980;SDS011;13772;52.996;9.124;2023-04-25T20:37:31;9.63;;;1.58;;
25980;SDS011;13772;52.996;9.124;2023-04-25T20:39:57;8.90;;;2.08;;
25980;SDS011;13772;52.996;9.124;2023-04-25T20:42:23;7.13;;;1.98;;
25980;SDS011;13772;52.996;9.124;2023-04-25T20:44:48;7.75;;;1.90;;
25980;SDS011;13772;52.996;9.124;2023-04-25T20:47:13;15.93;;;2.47;;
25980;SDS011;13772;52.996;9.124;2023-04-25T20:49:39;7.03;;;2.03;;
25980;SDS011;13772;52.996;9.124;2023-04-25T20:52:04;9.45;;;1.80;;
25980;SDS011;13772;52.996;9.124;2023-04-25T20:54:29;11.60;;;1.88;;
25980;SDS011;13772;52.996;9.124;2023-04-25T20:56:56;5.88;;;1.80;;
25980;SDS011;13772;52.996;9.124;2023-04-25T20:59:21;7.97;;;1.95;;
25980;SDS011;13772;52.996;9.124;2023-04-25T21:01:47;6.70;;;1.73;;
25980;SDS011;13772;52.996;9.124;2023-04-25T21:04:12;8.63;;;1.80;;
25980;SDS011;13772;52.996;9.124;2023-04-25T21:06:38;7.32;;;1.60;;
25980;SDS011;13772;52.996;9.124;2023-04-25T21:09:03;10.15;;;2.03;;
25980;SDS011;13772;52.996;9.124;2023-04-25T21:11:29;9.90;;;2.20;;
25980;SDS011;13772;52.996;9.124;2023-04-25T21:13:54;12.77;;;1.90;;
25980;SDS011;13772;52.996;9.124;2023-04-25T21:16:19;7.18;;;1.60;;
25980;SDS011;13772;52.996;9.124;2023-04-25T21:18:45;8.65;;;2.10;;
25980;SDS011;13772;52.996;9.124;2023-04-25T21:21:10;10.75;;;2.25;;
25980;SDS011;13772;52.996;9.124;2023-04-25T21:23:35;10.38;;;2.00;;
25980;SDS011;13772;52.996;9.124;2023-04-25T21:26:00;10.10;;;1.80;;
25980;SDS011;13772;52.996;9.124;2023-04-25T21:28:26;12.85;;;2.35;;
25980;SDS011;13772;52.996;9.124;2023-04-25T21:30:51;8.02;;;2.38;;
25980;SDS011;13772;52.996;9.124;2023-04-25T21:33:16;10.20;;;2.47;;
25980;SDS011;13772;52.996;9.124;2023-04-25T21:35:42;9.80;;;2.55;;
25980;SDS011;13772;52.996;9.124;2023-04-25T21:38:07;11.25;;;2.28;;
25980;SDS011;13772;52.996;9.124;2023-04-25T21:40:33;11.55;;;2.25;;
25980;SDS011;13772;52.996;9.124;2023-04-25T21:42:58;10.32;;;2.70;;
25980;SDS011;13772;52.996;9.124;2023-04-25T21:45:24;8.48;;;2.65;;
25980;SDS011;13772;52.996;9.124;2023-04-25T21:47:49;8.55;;;2.35;;
25980;SDS011;13772;52.996;9.124;2023-04-25T21:50:15;12.30;;;2.70;;
25980;SDS011;13772;52.996;9.124;2023-04-25T21:52:40;8.80;;;2.17;;
25980;SDS011;13772;52.996;9.124;2023-04-25T21:55:06;10.68;;;2.35;;
